Time;durP1;ratioP1;P1;durP2;ratioP2;P2;SDS_P1;SDS_P2;PMS_P1;PMS_P2;Temp;Humidity;BMP_temperature;BMP_pressure;BME280_temperature;BME280_humidity;BME280_pressure;Samples;Min_cycle;Max_cycle;Signal;HPM_P1;HPM_P2
2024/01/11 00:03:43;;;;;;;26.87;16.90;;;-0.20;34.90;;;;;;10356908;28;20233;-78
2024/01/11 00:08:46;;;;;;;28.43;17.17;;;-0.20;34.80;;;;;;10354033;28;20712;-77
2024/01/11 00:13:49;;;;;;;26.33;17.53;;;-0.20;34.80;;;;;;10351551;28;20754;-77
2024/01/11 00:18:54;;;;;;;27.03;18.27;;;-0.30;34.80;;;;;;10356848;28;20313;-78
2024/01/11 00:23:58;;;;;;;29.67;17.40;;;-0.30;34.70;;;;;;10338498;28;20238;-78
2024/01/11 00:29:01;;;;;;;21.83;15.27;;;-0.30;34.80;;;;;;10358678;28;20301;-78
2024/01/11 00:34:07;;;;;;;26.67;17.67;;;-0.30;34.80;;;;;;10356526;28;20732;-78
2024/01/11 00:39:11;;;;;;;26.97;17.37;;;-0.30;34.90;;;;;;10358071;28;20246;-78
2024/01/11 00:44:15;;;;;;;19.57;13.50;;;-0.40;34.80;;;;;;10356263;28;20337;-77
2024/01/11 00:49:19;;;;;;;22.20;14.53;;;-0.40;34.80;;;;;;10356642;28;20560;-77
2024/01/11 00:54:23;;;;;;;19.17;13.30;;;-0.40;34.80;;;;;;10353036;28;20647;-77
2024/01/11 00:59:26;;;;;;;27.57;16.37;;;-0.40;34.80;;;;;;10353207;28;20238;-78
2024/01/11 01:04:31;;;;;;;27.27;17.57;;;-0.50;34.70;;;;;;10360889;28;20233;-78
2024/01/11 01:09:34;;;;;;;26.10;16.47;;;-0.50;34.70;;;;;;10364641;28;20337;-78
2024/01/11 01:14:37;;;;;;;24.53;16.17;;;-0.50;34.70;;;;;;10363371;28;20228;-78
2024/01/11 01:19:42;;;;;;;26.53;17.23;;;-0.50;34.70;;;;;;10361814;28;20700;-77
2024/01/11 01:24:45;;;;;;;25.47;16.57;;;-0.50;34.70;;;;;;10366722;28;20305;-77
2024/01/11 01:29:48;;;;;;;27.83;16.80;;;-0.60;34.70;;;;;;10365703;28;20234;-77
2024/01/11 01:34:53;;;;;;;25.60;15.93;;;-0.60;34.50;;;;;;10365300;28;20218;-78
2024/01/11 01:39:56;;;;;;;26.83;17.10;;;-0.60;34.60;;;;;;10366089;28;20222;-78
2024/01/11 01:44:59;;;;;;;25.07;16.47;;;-0.70;34.60;;;;;;10363310;28;20325;-78
2024/01/11 01:50:04;;;;;;;25.07;15.10;;;-0.70;34.70;;;;;;10361023;28;20250;-78
2024/01/11 01:55:10;;;;;;;23.43;15.57;;;-0.70;34.70;;;;;;10357771;28;20613;-78
2024/01/11 02:00:14;;;;;;;21.70;14.93;;;-0.70;34.70;;;;;;10365231;28;20234;-78
2024/01/11 02:05:20;;;;;;;25.10;15.90;;;-0.80;34.60;;;;;;10365279;28;20236;-77
2024/01/11 02:10:24;;;;;;;23.13;15.63;;;-0.70;34.50;;;;;;10363524;28;20242;-77
2024/01/11 02:15:27;;;;;;;21.60;15.00;;;-0.80;34.50;;;;;;10356241;28;20289;-77
2024/01/11 02:20:32;;;;;;;25.53;15.97;;;-0.80;34.50;;;;;;10361113;28;20234;-77
2024/01/11 02:25:37;;;;;;;23.87;14.67;;;-0.80;34.50;;;;;;10361243;28;20827;-77
2024/01/11 02:30:40;;;;;;;25.37;14.30;;;-0.90;34.50;;;;;;10363226;28;20244;-78
2024/01/11 02:35:44;;;;;;;23.57;15.50;;;-0.90;34.60;;;;;;10362815;28;20226;-77
2024/01/11 02:40:52;;;;;;;23.10;15.47;;;-0.90;34.50;;;;;;10360399;28;20250;-77
2024/01/11 02:45:55;;;;;;;22.67;14.77;;;-0.90;34.50;;;;;;10362920;28;20614;-77
2024/01/11 02:50:59;;;;;;;18.40;12.80;;;-1.00;34.50;;;;;;10360811;28;20230;-77
2024/01/11 02:56:04;;;;;;;24.20;14.60;;;-1.00;34.40;;;;;;10362928;28;20220;-77
2024/01/11 03:01:07;;;;;;;18.30;12.30;;;-1.00;34.40;;;;;;10363731;28;20231;-78
2024/01/11 03:06:11;;;;;;;23.07;14.83;;;-1.00;34.50;;;;;;10360369;28;20222;-78
2024/01/11 03:11:16;;;;;;;23.40;15.40;;;-1.00;34.40;;;;;;10364960;28;20231;-77
2024/01/11 03:16:19;;;;;;;20.70;13.40;;;-1.10;34.00;;;;;;10363057;28;20230;-78
2024/01/11 03:21:22;;;;;;;23.70;14.67;;;-1.20;34.20;;;;;;10361507;28;20254;-77
2024/01/11 03:26:28;;;;;;;24.10;14.30;;;-1.20;34.30;;;;;;10358700;28;20772;-78
2024/01/11 03:31:31;;;;;;;23.00;15.03;;;-1.20;34.30;;;;;;10358472;28;20227;-77
2024/01/11 03:36:35;;;;;;;18.37;11.53;;;-1.20;34.40;;;;;;10359621;28;20241;-77
2024/01/11 03:41:44;;;;;;;21.90;13.23;;;-1.30;34.30;;;;;;10358080;28;20235;-78
2024/01/11 03:46:48;;;;;;;21.80;14.73;;;-1.30;34.30;;;;;;10360295;28;20288;-77
2024/01/11 03:51:51;;;;;;;22.23;13.50;;;-1.30;34.30;;;;;;10358883;28;20681;-77
2024/01/11 03:56:55;;;;;;;42.67;23.80;;;-1.30;34.40;;;;;;10358182;28;20236;-77
2024/01/11 04:02:00;;;;;;;30.70;18.80;;;-1.30;34.30;;;;;;10356578;28;20334;-76
2024/01/11 04:07:03;;;;;;;29.43;16.50;;;-1.30;34.40;;;;;;10358314;28;20226;-76
2024/01/11 04:12:08;;;;;;;64.37;34.07;;;-1.40;34.30;;;;;;10355122;28;20317;-77
2024/01/11 04:17:11;;;;;;;192.30;75.83;;;-1.40;34.30;;;;;;10356314;28;20222;-76
2024/01/11 04:22:15;;;;;;;140.63;56.13;;;-1.40;34.40;;;;;;10357696;28;20594;-76
2024/01/11 04:27:20;;;;;;;123.50;49.33;;;-1.40;34.40;;;;;;10355266;28;20709;-76
2024/01/11 04:32:23;;;;;;;56.90;27.97;;;-1.40;34.30;;;;;;10354532;28;20329;-76
2024/01/11 04:37:26;;;;;;;41.40;21.10;;;-1.40;34.40;;;;;;10363910;28;20234;-77
2024/01/11 04:42:31;;;;;;;33.43;18.50;;;-1.50;34.20;;;;;;10367101;28;20796;-77
2024/01/11 04:47:34;;;;;;;30.13;17.43;;;-1.50;34.20;;;;;;10365352;28;20236;-77
2024/01/11 04:52:37;;;;;;;22.30;13.73;;;-1.50;34.30;;;;;;10359747;28;20238;-76
2024/01/11 04:57:42;;;;;;;24.37;15.03;;;-1.50;34.30;;;;;;10360881;28;20284;-77
2024/01/11 05:02:45;;;;;;;28.80;17.30;;;-1.50;34.30;;;;;;10364268;28;20314;-77
2024/01/11 05:07:48;;;;;;;22.27;13.87;;;-1.60;34.00;;;;;;10363623;28;20230;-77
2024/01/11 05:12:53;;;;;;;23.53;15.37;;;-1.60;34.00;;;;;;10364982;28;20262;-77
2024/01/11 05:17:56;;;;;;;25.73;14.97;;;-1.60;34.10;;;;;;10363706;28;20240;-77
2024/01/11 05:23:00;;;;;;;24.77;15.03;;;-1.70;34.00;;;;;;10360446;28;20317;-77
2024/01/11 05:28:05;;;;;;;23.53;14.40;;;-1.80;33.90;;;;;;10362262;28;20276;-77
2024/01/11 05:33:09;;;;;;;21.37;13.00;;;-1.80;34.00;;;;;;10362778;28;20232;-77
2024/01/11 05:38:12;;;;;;;20.03;13.33;;;-1.90;34.00;;;;;;10360884;28;20222;-77
2024/01/11 05:43:17;;;;;;;20.33;13.43;;;-2.00;34.20;;;;;;10362438;28;20255;-77
2024/01/11 05:48:20;;;;;;;21.97;14.37;;;-2.00;34.30;;;;;;10361551;28;20240;-77
2024/01/11 05:53:27;;;;;;;22.13;13.23;;;-2.00;34.30;;;;;;10368008;28;20261;-77
2024/01/11 05:58:32;;;;;;;22.90;13.40;;;-2.00;34.10;;;;;;10365618;28;20759;-77
2024/01/11 06:03:36;;;;;;;19.73;13.27;;;-2.00;34.20;;;;;;10364277;28;20234;-77
2024/01/11 06:08:39;;;;;;;21.57;12.67;;;-2.00;34.30;;;;;;10364139;28;20241;-76
2024/01/11 06:13:43;;;;;;;24.13;14.93;;;-2.00;34.30;;;;;;10363872;28;20234;-76
2024/01/11 06:18:47;;;;;;;23.13;12.97;;;-2.00;34.30;;;;;;10364567;28;20241;-76
2024/01/11 06:23:51;;;;;;;20.80;13.37;;;-2.00;35.10;;;;;;10359518;28;20245;-76
2024/01/11 06:28:55;;;;;;;25.93;15.73;;;-1.90;35.40;;;;;;10358300;28;20230;-76
2024/01/11 06:33:59;;;;;;;25.77;16.17;;;-1.80;34.90;;;;;;10356264;28;20234;-76
2024/01/11 06:39:04;;;;;;;24.03;15.17;;;-1.90;34.70;;;;;;10360086;28;20229;-76
2024/01/11 06:44:08;;;;;;;25.53;16.87;;;-1.90;34.80;;;;;;10358009;28;20226;-77
2024/01/11 06:49:12;;;;;;;22.90;15.47;;;-1.90;34.70;;;;;;10370135;28;20931;-74
2024/01/11 06:54:15;;;;;;;23.20;15.63;;;-1.90;34.70;;;;;;10373402;28;20242;-75
2024/01/11 06:59:20;;;;;;;18.93;12.67;;;-1.90;34.60;;;;;;10381864;28;20273;-75
2024/01/11 07:04:25;;;;;;;25.27;15.07;;;-1.80;34.60;;;;;;10382501;28;20223;-75
2024/01/11 07:09:28;;;;;;;22.80;14.70;;;-1.90;34.50;;;;;;10379690;28;20781;-75
2024/01/11 07:14:33;;;;;;;21.87;13.53;;;-2.00;34.30;;;;;;10379444;28;20230;-75
2024/01/11 07:19:37;;;;;;;22.33;13.27;;;-2.10;34.00;;;;;;10381831;28;20238;-75
2024/01/11 07:24:41;;;;;;;22.00;14.07;;;-2.20;34.30;;;;;;10380108;28;20321;-74
2024/01/11 07:29:45;;;;;;;20.73;13.93;;;-2.20;34.40;;;;;;10381021;28;20241;-75
2024/01/11 07:34:48;;;;;;;21.10;13.20;;;-2.20;34.50;;;;;;10380834;28;20758;-74
2024/01/11 07:39:52;;;;;;;19.10;12.20;;;-2.20;34.50;;;;;;10380518;28;20764;-75
2024/01/11 07:44:56;;;;;;;23.30;13.80;;;-2.20;34.50;;;;;;10381874;28;20835;-73
2024/01/11 07:50:00;;;;;;;23.03;14.67;;;-2.20;34.60;;;;;;10369212;28;20241;-75
2024/01/11 07:55:07;;;;;;;21.73;13.50;;;-2.20;34.60;;;;;;10363059;28;20226;-74
2024/01/11 08:00:12;;;;;;;21.87;13.33;;;-2.10;34.70;;;;;;10366387;28;20837;-74
2024/01/11 08:05:15;;;;;;;22.50;14.20;;;-2.10;34.80;;;;;;10367380;28;20230;-76
2024/01/11 08:10:19;;;;;;;23.17;13.97;;;-2.10;34.90;;;;;;10366616;28;20245;-75
2024/01/11 08:15:23;;;;;;;22.27;14.77;;;-2.00;35.20;;;;;;10369336;28;20772;-79
2024/01/11 08:20:27;;;;;;;21.83;13.77;;;-1.80;35.30;;;;;;10370703;28;20240;-79
2024/01/11 08:25:31;;;;;;;22.10;14.57;;;-1.70;35.40;;;;;;10371507;28;20218;-77
2024/01/11 08:30:36;;;;;;;21.90;14.23;;;-1.60;35.60;;;;;;10371608;28;20317;-78
2024/01/11 08:35:40;;;;;;;20.73;14.17;;;-1.40;35.70;;;;;;10371109;28;20218;-79
2024/01/11 08:40:44;;;;;;;22.90;15.43;;;-1.30;35.70;;;;;;10361584;28;20313;-79
2024/01/11 08:45:49;;;;;;;25.23;16.60;;;-1.10;35.70;;;;;;10355835;28;20309;-78
2024/01/11 08:50:52;;;;;;;26.63;17.33;;;-1.00;35.80;;;;;;10357247;28;20241;-80
2024/01/11 08:55:55;;;;;;;26.00;17.57;;;-0.90;35.80;;;;;;10357158;28;20332;-79
2024/01/11 09:01:00;;;;;;;21.57;16.37;;;-0.80;35.80;;;;;;10362701;28;20303;-80
2024/01/11 09:06:04;;;;;;;24.63;16.20;;;-0.70;36.00;;;;;;10362057;28;20272;-77
2024/01/11 09:11:10;;;;;;;24.67;17.30;;;-0.70;35.90;;;;;;10363263;28;20241;-77
2024/01/11 09:16:17;;;;;;;28.47;18.23;;;-0.70;36.80;;;;;;10366980;28;20239;-78
2024/01/11 09:21:21;;;;;;;25.77;17.80;;;-0.60;36.30;;;;;;10376258;28;20249;-79
2024/01/11 09:26:24;;;;;;;26.53;18.23;;;-0.40;36.40;;;;;;10367225;28;20317;-74
2024/01/11 09:31:28;;;;;;;25.57;18.67;;;-0.30;36.30;;;;;;10370541;28;20230;-74
2024/01/11 09:36:33;;;;;;;25.77;18.13;;;-0.10;36.20;;;;;;10371962;28;20316;-73
2024/01/11 09:41:39;;;;;;;23.07;17.17;;;0.10;36.40;;;;;;10373082;28;20321;-73
2024/01/11 09:46:43;;;;;;;25.17;17.37;;;0.20;36.40;;;;;;10375380;28;20254;-73
2024/01/11 09:51:48;;;;;;;26.37;18.43;;;0.40;36.60;;;;;;10371985;28;20426;-73
2024/01/11 09:56:52;;;;;;;27.57;20.13;;;0.60;36.50;;;;;;10370840;28;20598;-73
2024/01/11 10:01:57;;;;;;;26.70;19.33;;;0.80;36.50;;;;;;10372486;28;20242;-73
2024/01/11 10:07:02;;;;;;;28.00;19.57;;;0.90;36.20;;;;;;10372087;28;20250;-73
2024/01/11 10:12:06;;;;;;;37.70;25.33;;;1.00;36.30;;;;;;10369150;28;20230;-72
2024/01/11 10:17:11;;;;;;;30.80;21.97;;;1.00;36.10;;;;;;10368873;28;20276;-73
2024/01/11 10:22:22;;;;;;;29.27;21.43;;;1.00;36.10;;;;;;10368578;28;20772;-73
2024/01/11 10:27:30;;;;;;;28.67;21.30;;;0.80;36.10;;;;;;10368847;28;20222;-75
2024/01/11 10:32:35;;;;;;;29.67;21.20;;;0.80;36.70;;;;;;10378353;28;20556;-74
2024/01/11 10:37:39;;;;;;;30.53;21.40;;;0.90;36.70;;;;;;10372118;28;20234;-76
2024/01/11 10:42:44;;;;;;;31.30;23.07;;;1.00;36.90;;;;;;10366317;28;20249;-75
2024/01/11 10:47:56;;;;;;;30.83;22.20;;;1.10;36.70;;;;;;10367778;28;21063;-75
2024/01/11 10:53:20;;;;;;;29.27;22.43;;;1.30;36.80;;;;;;10367575;28;20237;-74
2024/01/11 10:58:26;;;;;;;32.03;23.03;;;1.40;36.90;;;;;;10369499;28;20309;-74
2024/01/11 11:03:32;;;;;;;29.47;22.83;;;1.60;36.70;;;;;;10365886;28;20240;-74
2024/01/11 11:08:38;;;;;;;29.60;21.97;;;1.90;36.70;;;;;;10364012;28;20262;-74
2024/01/11 11:13:42;;;;;;;31.77;23.60;;;1.90;36.70;;;;;;10365237;28;20234;-73
2024/01/11 11:18:47;;;;;;;30.47;22.03;;;2.10;36.70;;;;;;10364649;28;20230;-74
2024/01/11 11:23:50;;;;;;;33.03;24.27;;;2.20;36.60;;;;;;10364778;28;20241;-74
2024/01/11 11:28:54;;;;;;;30.30;23.93;;;2.30;36.50;;;;;;10365644;28;20313;-74
2024/01/11 11:34:02;;;;;;;28.87;23.00;;;2.40;36.50;;;;;;10365653;28;20802;-73
2024/01/11 11:39:07;;;;;;;28.43;23.10;;;2.40;36.70;;;;;;10365634;28;20701;-73
2024/01/11 11:44:13;;;;;;;32.90;24.37;;;2.40;36.70;;;;;;10364808;28;20234;-72
2024/01/11 11:49:18;;;;;;;27.03;23.17;;;2.60;36.40;;;;;;10364989;28;20234;-73
2024/01/11 11:54:23;;;;;;;30.40;24.43;;;2.70;36.50;;;;;;10365034;28;20234;-73
2024/01/11 11:59:27;;;;;;;32.27;25.60;;;2.80;36.50;;;;;;10364624;28;20230;-73
2024/01/11 12:04:32;;;;;;;28.97;22.87;;;2.90;36.50;;;;;;10364857;28;20226;-74
2024/01/11 12:09:37;;;;;;;34.90;25.07;;;3.00;36.60;;;;;;10363709;28;20296;-73
2024/01/11 12:14:40;;;;;;;28.43;22.53;;;3.10;36.60;;;;;;10363904;28;20314;-74
2024/01/11 12:19:45;;;;;;;29.90;23.40;;;3.10;36.60;;;;;;10364388;28;20249;-73
2024/01/11 12:24:48;;;;;;;30.80;23.00;;;3.20;36.60;;;;;;10365992;28;20250;-73
2024/01/11 12:29:51;;;;;;;29.33;23.30;;;3.30;36.50;;;;;;10365302;28;20872;-76
2024/01/11 12:35:03;;;;;;;31.43;23.90;;;3.40;36.20;;;;;;10360299;28;20237;-74
2024/01/11 12:40:10;;;;;;;27.33;22.17;;;3.40;36.00;;;;;;10370636;28;20716;-75
2024/01/11 12:45:14;;;;;;;29.13;23.10;;;3.40;36.10;;;;;;10371118;28;20230;-75
2024/01/11 12:50:20;;;;;;;29.93;24.13;;;3.40;35.90;;;;;;10364524;28;20234;-75
2024/01/11 12:55:24;;;;;;;28.83;23.70;;;3.40;35.90;;;;;;10364838;28;20250;-75
2024/01/11 13:00:27;;;;;;;27.33;21.77;;;3.50;35.90;;;;;;10372582;28;20230;-76
2024/01/11 13:05:34;;;;;;;27.03;22.00;;;3.50;35.80;;;;;;10374858;28;20234;-76
2024/01/11 13:10:39;;;;;;;27.43;21.57;;;3.50;35.60;;;;;;10376650;28;20261;-76
2024/01/11 13:15:43;;;;;;;29.17;23.37;;;3.60;35.70;;;;;;10373378;28;20305;-76
2024/01/11 13:20:48;;;;;;;30.03;23.60;;;3.50;35.60;;;;;;10374412;28;20238;-78
2024/01/11 13:25:52;;;;;;;28.63;22.70;;;3.50;35.60;;;;;;10374943;28;20361;-76
2024/01/11 13:30:55;;;;;;;29.30;23.27;;;3.50;35.60;;;;;;10374528;28;20241;-77
2024/01/11 13:36:01;;;;;;;30.03;22.80;;;3.60;35.60;;;;;;10373922;28;20230;-76
2024/01/11 13:41:07;;;;;;;31.97;22.77;;;3.60;35.60;;;;;;10372554;28;20615;-77
2024/01/11 13:46:11;;;;;;;29.03;22.90;;;3.60;35.60;;;;;;10369087;28;20254;-75
2024/01/11 13:51:16;;;;;;;29.00;23.80;;;3.50;35.60;;;;;;10365731;28;20312;-77
2024/01/11 13:56:20;;;;;;;30.30;23.63;;;3.50;35.60;;;;;;10372435;28;20230;-76
2024/01/11 14:01:23;;;;;;;29.37;23.77;;;3.50;35.60;;;;;;10375418;28;20230;-78
2024/01/11 14:06:28;;;;;;;28.87;23.70;;;3.70;35.70;;;;;;10374573;28;20305;-78
2024/01/11 14:11:33;;;;;;;28.40;21.37;;;3.60;35.60;;;;;;10372572;28;20249;-77
2024/01/11 14:16:37;;;;;;;32.77;24.33;;;3.60;35.60;;;;;;10372916;28;20240;-77
2024/01/11 14:21:43;;;;;;;32.47;23.57;;;3.70;35.70;;;;;;10370227;28;20659;-77
2024/01/11 14:26:46;;;;;;;30.60;23.70;;;3.70;35.70;;;;;;10369005;28;20234;-77
2024/01/11 14:31:50;;;;;;;29.93;24.03;;;3.60;35.60;;;;;;10367665;28;20506;-77
2024/01/11 14:36:55;;;;;;;29.83;23.90;;;3.60;35.60;;;;;;10362617;28;20318;-78
2024/01/11 14:41:58;;;;;;;30.10;25.03;;;3.50;35.60;;;;;;10362590;28;20242;-78
2024/01/11 14:47:01;;;;;;;29.10;22.93;;;3.50;35.60;;;;;;10363548;28;20222;-78
2024/01/11 14:52:07;;;;;;;30.77;25.53;;;3.50;35.60;;;;;;10360337;28;20711;-77
2024/01/11 14:57:10;;;;;;;29.17;24.03;;;3.40;35.50;;;;;;10363346;28;20246;-77
2024/01/11 15:02:13;;;;;;;29.57;24.17;;;3.40;35.80;;;;;;10359903;28;20222;-77
2024/01/11 15:07:18;;;;;;;29.37;24.47;;;3.50;35.60;;;;;;10360765;28;20230;-77
2024/01/11 15:12:22;;;;;;;31.40;25.10;;;3.50;35.60;;;;;;10359630;28;20237;-77
2024/01/11 15:17:26;;;;;;;33.77;23.67;;;3.50;35.60;;;;;;10364402;28;20602;-76
2024/01/11 15:22:31;;;;;;;31.30;26.77;;;3.50;35.60;;;;;;10363952;28;20233;-77
2024/01/11 15:27:35;;;;;;;32.23;26.40;;;3.50;35.60;;;;;;10360569;28;20732;-78
2024/01/11 15:32:38;;;;;;;29.40;24.90;;;3.50;35.60;;;;;;10359654;28;20296;-78
2024/01/11 15:37:43;;;;;;;31.03;25.10;;;3.40;35.40;;;;;;10357727;28;20234;-76
2024/01/11 15:42:46;;;;;;;30.80;25.03;;;3.30;35.40;;;;;;10358284;28;20238;-77
2024/01/11 15:47:49;;;;;;;34.37;25.93;;;3.20;35.40;;;;;;10362318;28;20440;-77
2024/01/11 15:52:54;;;;;;;35.67;26.97;;;3.30;35.70;;;;;;10360076;28;20237;-77
2024/01/11 15:57:58;;;;;;;30.00;24.63;;;3.20;35.40;;;;;;10360209;28;20238;-76
2024/01/11 16:03:06;;;;;;;32.23;23.60;;;3.20;35.30;;;;;;10356217;28;20230;-77
2024/01/11 16:08:11;;;;;;;30.87;25.17;;;3.20;35.80;;;;;;10359433;28;20230;-78
2024/01/11 16:13:14;;;;;;;30.17;24.60;;;3.20;35.30;;;;;;10359804;28;20229;-78
2024/01/11 16:18:18;;;;;;;39.07;30.40;;;3.20;35.30;;;;;;10360543;28;20689;-78
2024/01/11 16:23:23;;;;;;;37.87;29.20;;;3.10;35.20;;;;;;10354847;28;20237;-79
2024/01/11 16:28:26;;;;;;;37.63;30.43;;;3.10;35.20;;;;;;10360622;28;20234;-78
2024/01/11 16:33:30;;;;;;;30.70;23.73;;;2.90;35.10;;;;;;10359190;28;20317;-78
2024/01/11 16:38:35;;;;;;;33.97;27.63;;;2.90;35.10;;;;;;10367087;28;20592;-78
2024/01/11 16:43:38;;;;;;;44.40;38.17;;;2.80;35.10;;;;;;10365004;28;20720;-78
2024/01/11 16:48:42;;;;;;;42.10;35.90;;;2.90;35.40;;;;;;10364389;28;20238;-78
2024/01/11 16:53:47;;;;;;;38.50;33.43;;;2.80;35.20;;;;;;10363392;28;20234;-78
2024/01/11 16:58:50;;;;;;;38.33;29.63;;;2.80;35.90;;;;;;10361341;28;20231;-78
2024/01/11 17:03:53;;;;;;;37.03;29.83;;;2.80;35.20;;;;;;10363519;28;20731;-77
2024/01/11 17:08:58;;;;;;;34.97;27.83;;;2.80;35.00;;;;;;10364844;28;20241;-78
2024/01/11 17:14:01;;;;;;;33.03;25.97;;;2.80;36.40;;;;;;10358506;28;20276;-78
2024/01/11 17:19:04;;;;;;;35.57;27.53;;;2.80;36.00;;;;;;10364843;28;20228;-78
2024/01/11 17:24:09;;;;;;;39.57;29.93;;;2.80;35.50;;;;;;10360665;28;20241;-78
2024/01/11 17:29:13;;;;;;;37.80;28.77;;;2.70;34.90;;;;;;10360278;28;20786;-79
2024/01/11 17:34:16;;;;;;;36.73;27.90;;;2.50;34.90;;;;;;10365629;28;20246;-78
2024/01/11 17:39:23;;;;;;;36.20;27.77;;;2.20;35.90;;;;;;10362869;28;20218;-77
2024/01/11 17:44:26;;;;;;;41.70;30.77;;;2.20;36.60;;;;;;10355395;28;20321;-78
2024/01/11 17:49:29;;;;;;;39.40;29.03;;;2.10;36.30;;;;;;10328572;28;20230;-77
2024/01/11 17:54:35;;;;;;;48.03;38.40;;;2.00;35.90;;;;;;10360345;28;20230;-77
2024/01/11 17:59:38;;;;;;;54.77;41.80;;;2.10;35.80;;;;;;10346899;28;20658;-78
2024/01/11 18:04:45;;;;;;;48.10;36.80;;;1.90;35.50;;;;;;10355524;28;20238;-78
2024/01/11 18:09:52;;;;;;;37.00;27.83;;;1.80;35.80;;;;;;10360883;28;20241;-78
2024/01/11 18:14:55;;;;;;;38.30;30.67;;;1.70;36.00;;;;;;10363128;28;20799;-77
2024/01/11 18:19:58;;;;;;;44.40;33.27;;;1.80;35.90;;;;;;10362398;28;20241;-77
2024/01/11 18:25:03;;;;;;;42.47;32.60;;;1.70;35.70;;;;;;10363045;28;20222;-77
2024/01/11 18:30:08;;;;;;;42.40;30.80;;;1.60;35.70;;;;;;10358036;28;20237;-78
2024/01/11 18:35:12;;;;;;;45.83;33.87;;;1.50;36.70;;;;;;10359854;28;20725;-77
2024/01/11 18:40:22;;;;;;;44.70;31.60;;;1.30;36.10;;;;;;10356757;28;20219;-77
2024/01/11 18:45:27;;;;;;;48.30;33.47;;;1.20;36.40;;;;;;10359920;28;20230;-77
2024/01/11 18:50:31;;;;;;;44.77;32.13;;;1.00;36.50;;;;;;10360084;28;20222;-77
2024/01/11 18:55:36;;;;;;;45.13;31.87;;;0.90;36.50;;;;;;10360371;28;20253;-77
2024/01/11 19:00:39;;;;;;;40.83;29.70;;;0.80;36.80;;;;;;10360950;28;20245;-79
2024/01/11 19:05:43;;;;;;;41.77;29.50;;;0.70;36.80;;;;;;10360862;28;20222;-77
2024/01/11 19:10:49;;;;;;;45.23;31.23;;;0.70;36.90;;;;;;10359043;28;20280;-77
2024/01/11 19:15:53;;;;;;;43.30;29.97;;;0.70;37.10;;;;;;10359689;28;20780;-77
2024/01/11 19:20:58;;;;;;;90.87;50.07;;;0.60;36.90;;;;;;10357903;28;20238;-77
2024/01/11 19:26:03;;;;;;;105.43;61.53;;;0.60;36.90;;;;;;10355867;28;20229;-77
2024/01/11 19:31:06;;;;;;;88.43;51.47;;;0.50;36.90;;;;;;10360521;28;20629;-77
2024/01/11 19:36:09;;;;;;;93.67;50.53;;;0.40;37.00;;;;;;10361267;28;20238;-77
2024/01/11 19:41:20;;;;;;;83.80;48.87;;;0.30;37.00;;;;;;10359657;28;20257;-77
2024/01/11 19:46:24;;;;;;;52.30;34.07;;;0.30;37.30;;;;;;10358069;28;20229;-77
2024/01/11 19:51:27;;;;;;;65.60;42.77;;;0.30;37.40;;;;;;10357114;28;20246;-77
2024/01/11 19:56:32;;;;;;;52.70;33.97;;;0.40;37.40;;;;;;10359428;28;20258;-77
2024/01/11 20:01:36;;;;;;;48.93;32.97;;;0.50;37.30;;;;;;10360927;28;20261;-77
2024/01/11 20:06:39;;;;;;;74.57;43.90;;;0.50;37.10;;;;;;10358264;28;20313;-79
2024/01/11 20:11:44;;;;;;;62.13;39.87;;;0.60;37.10;;;;;;10360246;28;20230;-77
2024/01/11 20:16:47;;;;;;;61.63;38.93;;;0.60;37.00;;;;;;10357403;28;20222;-77
2024/01/11 20:21:50;;;;;;;58.00;36.10;;;0.60;37.00;;;;;;10358695;28;20230;-77
2024/01/11 20:26:55;;;;;;;53.77;34.43;;;0.60;37.10;;;;;;10357117;28;20305;-77
2024/01/11 20:31:58;;;;;;;42.43;31.70;;;0.60;37.00;;;;;;10357781;28;20780;-76
2024/01/11 20:37:02;;;;;;;45.13;32.33;;;0.60;37.10;;;;;;10352595;28;20210;-77
2024/01/11 20:42:06;;;;;;;52.10;35.40;;;0.60;37.10;;;;;;10359678;28;20262;-77
2024/01/11 20:47:10;;;;;;;54.53;36.53;;;0.50;37.40;;;;;;10357985;28;20268;-77
2024/01/11 20:52:13;;;;;;;59.87;37.93;;;0.50;37.20;;;;;;10355645;28;20234;-76
2024/01/11 20:57:17;;;;;;;50.33;32.53;;;0.50;37.40;;;;;;10355882;28;20229;-77
2024/01/11 21:02:21;;;;;;;51.53;33.37;;;0.40;37.60;;;;;;10355344;28;20305;-77
2024/01/11 21:07:24;;;;;;;45.07;29.53;;;0.40;37.70;;;;;;10363197;28;20230;-78
2024/01/11 21:12:29;;;;;;;46.60;30.80;;;0.30;37.60;;;;;;10356498;28;20254;-78
2024/01/11 21:17:33;;;;;;;45.87;30.30;;;0.30;38.00;;;;;;10361287;28;20232;-75
2024/01/11 21:22:36;;;;;;;48.87;33.40;;;0.20;37.90;;;;;;10361937;28;20325;-75
2024/01/11 21:27:41;;;;;;;43.07;28.13;;;0.30;38.10;;;;;;10361756;28;20326;-76
2024/01/11 21:32:44;;;;;;;42.13;29.20;;;0.30;38.20;;;;;;10357900;28;20812;-76
2024/01/11 21:37:48;;;;;;;42.07;28.77;;;0.30;38.10;;;;;;10358989;28;20607;-76
2024/01/11 21:42:54;;;;;;;47.00;29.57;;;0.40;38.20;;;;;;10362470;28;20571;-77
2024/01/11 21:47:57;;;;;;;44.97;30.07;;;0.50;38.30;;;;;;10361089;28;20250;-78
2024/01/11 21:53:01;;;;;;;44.77;28.73;;;0.50;38.20;;;;;;10367084;28;20230;-75
2024/01/11 21:58:06;;;;;;;43.63;29.60;;;0.50;38.30;;;;;;10366187;28;20701;-75
2024/01/11 22:03:09;;;;;;;43.23;30.93;;;0.50;38.40;;;;;;10361009;28;20667;-76
2024/01/11 22:08:14;;;;;;;47.03;30.47;;;0.50;38.30;;;;;;10366585;28;20727;-75
2024/01/11 22:13:19;;;;;;;42.67;29.03;;;0.60;38.40;;;;;;10369384;28;20701;-75
2024/01/11 22:18:22;;;;;;;47.17;31.23;;;0.60;38.40;;;;;;10366008;28;20230;-75
2024/01/11 22:23:26;;;;;;;43.07;28.67;;;0.60;38.40;;;;;;10356731;28;20227;-75
2024/01/11 22:28:30;;;;;;;46.83;30.07;;;0.60;38.40;;;;;;10357826;28;20222;-75
2024/01/11 22:33:34;;;;;;;46.83;30.90;;;0.50;38.60;;;;;;10361774;28;20281;-75
2024/01/11 22:38:38;;;;;;;46.20;30.97;;;0.50;38.60;;;;;;10361296;28;20258;-75
2024/01/11 22:43:43;;;;;;;46.57;29.80;;;0.50;38.60;;;;;;10361393;28;20815;-75
2024/01/11 22:48:48;;;;;;;41.57;27.03;;;0.50;38.80;;;;;;10358565;28;20232;-75
2024/01/11 22:53:51;;;;;;;40.63;29.27;;;0.50;38.60;;;;;;10361115;28;20222;-76
2024/01/11 22:58:56;;;;;;;42.73;27.87;;;0.50;38.60;;;;;;10361530;28;20227;-75
2024/01/11 23:03:59;;;;;;;46.73;29.57;;;0.50;38.70;;;;;;10359792;28;20222;-75
2024/01/11 23:09:02;;;;;;;45.60;29.97;;;0.60;38.70;;;;;;10362490;28;20329;-75
2024/01/11 23:14:08;;;;;;;42.03;28.30;;;0.60;38.90;;;;;;10361058;28;20741;-75
2024/01/11 23:19:12;;;;;;;42.27;29.77;;;0.60;39.00;;;;;;10356590;28;20227;-75
2024/01/11 23:24:16;;;;;;;42.33;28.57;;;0.50;39.00;;;;;;10358509;28;20226;-75
2024/01/11 23:29:20;;;;;;;40.20;26.87;;;0.60;39.00;;;;;;10360821;28;20349;-75
2024/01/11 23:34:24;;;;;;;40.80;26.57;;;0.60;39.00;;;;;;10357658;28;20276;-75
2024/01/11 23:39:27;;;;;;;37.27;25.67;;;0.60;38.80;;;;;;10359034;28;20651;-75
2024/01/11 23:44:31;;;;;;;39.50;27.80;;;0.60;38.90;;;;;;10357019;28;20233;-75
2024/01/11 23:49:34;;;;;;;41.80;27.43;;;0.70;39.00;;;;;;10350569;28;20640;-75
2024/01/11 23:54:38;;;;;;;36.27;25.87;;;0.70;38.80;;;;;;10353411;28;20288;-75
2024/01/11 23:59:44;;;;;;;39.37;26.40;;;0.80;38.70;;;;;;10357250;28;20717;-75
